sensor_id;sensor_type;location;lat;lon;timestamp;temperature;humidity
12849;DHT22;6493;50.928;7.172;2022-07-29T00:01:18;16.80;40.70
12849;DHT22;6493;50.928;7.172;2022-07-29T00:06:21;16.70;40.60
12849;DHT22;6493;50.928;7.172;2022-07-29T00:11:25;16.70;40.80
12849;DHT22;6493;50.928;7.172;2022-07-29T00:16:30;16.70;40.90
12849;DHT22;6493;50.928;7.172;2022-07-29T00:21:34;16.70;41.00
12849;DHT22;6493;50.928;7.172;2022-07-29T00:26:38;16.60;40.80
12849;DHT22;6493;50.928;7.172;2022-07-29T00:31:43;16.60;41.50
12849;DHT22;6493;50.928;7.172;2022-07-29T00:36:46;16.60;41.00
12849;DHT22;6493;50.928;7.172;2022-07-29T00:41:50;16.60;41.10
12849;DHT22;6493;50.928;7.172;2022-07-29T00:46:55;16.50;41.00
12849;DHT22;6493;50.928;7.172;2022-07-29T00:52:00;16.50;41.10
12849;DHT22;6493;50.928;7.172;2022-07-29T00:57:06;16.50;41.30
12849;DHT22;6493;50.928;7.172;2022-07-29T01:02:11;16.40;41.20
12849;DHT22;6493;50.928;7.172;2022-07-29T01:07:15;16.30;41.20
12849;DHT22;6493;50.928;7.172;2022-07-29T01:12:23;16.40;41.30
12849;DHT22;6493;50.928;7.172;2022-07-29T01:17:32;16.30;41.30
12849;DHT22;6493;50.928;7.172;2022-07-29T01:23:01;16.30;41.30
12849;DHT22;6493;50.928;7.172;2022-07-29T01:33:31;16.20;41.40
12849;DHT22;6493;50.928;7.172;2022-07-29T01:38:59;16.20;41.40
12849;DHT22;6493;50.928;7.172;2022-07-29T01:44:18;16.10;41.60
12849;DHT22;6493;50.928;7.172;2022-07-29T01:49:28;16.10;41.80
12849;DHT22;6493;50.928;7.172;2022-07-29T01:54:37;16.00;42.00
12849;DHT22;6493;50.928;7.172;2022-07-29T01:59:48;15.90;41.90
12849;DHT22;6493;50.928;7.172;2022-07-29T02:04:56;16.00;42.00
12849;DHT22;6493;50.928;7.172;2022-07-29T02:10:02;15.90;41.90
12849;DHT22;6493;50.928;7.172;2022-07-29T02:15:07;15.90;41.90
12849;DHT22;6493;50.928;7.172;2022-07-29T02:20:14;15.90;41.90
12849;DHT22;6493;50.928;7.172;2022-07-29T02:25:21;16.00;42.10
12849;DHT22;6493;50.928;7.172;2022-07-29T02:30:26;16.00;42.00
12849;DHT22;6493;50.928;7.172;2022-07-29T02:35:32;16.00;41.80
12849;DHT22;6493;50.928;7.172;2022-07-29T02:40:38;16.00;41.70
12849;DHT22;6493;50.928;7.172;2022-07-29T02:45:43;16.00;41.60
12849;DHT22;6493;50.928;7.172;2022-07-29T02:50:58;16.00;41.50
12849;DHT22;6493;50.928;7.172;2022-07-29T02:56:10;16.00;41.50
12849;DHT22;6493;50.928;7.172;2022-07-29T03:01:17;16.00;41.40
12849;DHT22;6493;50.928;7.172;2022-07-29T03:06:26;16.00;41.40
12849;DHT22;6493;50.928;7.172;2022-07-29T03:11:40;16.00;41.30
12849;DHT22;6493;50.928;7.172;2022-07-29T03:16:52;16.00;41.30
12849;DHT22;6493;50.928;7.172;2022-07-29T03:21:58;16.00;41.30
12849;DHT22;6493;50.928;7.172;2022-07-29T03:27:03;16.10;41.50
12849;DHT22;6493;50.928;7.172;2022-07-29T03:32:07;16.10;41.50
12849;DHT22;6493;50.928;7.172;2022-07-29T03:37:13;16.10;41.50
12849;DHT22;6493;50.928;7.172;2022-07-29T03:42:19;16.10;41.50
12849;DHT22;6493;50.928;7.172;2022-07-29T03:47:26;16.10;41.60
12849;DHT22;6493;50.928;7.172;2022-07-29T03:52:52;16.00;41.50
12849;DHT22;6493;50.928;7.172;2022-07-29T03:57:57;16.00;41.60
12849;DHT22;6493;50.928;7.172;2022-07-29T04:03:01;15.90;41.50
12849;DHT22;6493;50.928;7.172;2022-07-29T04:08:13;15.90;41.60
12849;DHT22;6493;50.928;7.172;2022-07-29T04:13:17;15.80;41.80
12849;DHT22;6493;50.928;7.172;2022-07-29T04:18:20;15.80;41.80
12849;DHT22;6493;50.928;7.172;2022-07-29T04:23:26;15.70;41.80
12849;DHT22;6493;50.928;7.172;2022-07-29T04:28:29;15.70;41.80
12849;DHT22;6493;50.928;7.172;2022-07-29T04:33:33;15.70;41.80
12849;DHT22;6493;50.928;7.172;2022-07-29T04:38:38;15.70;41.80
12849;DHT22;6493;50.928;7.172;2022-07-29T04:43:42;15.70;42.00
12849;DHT22;6493;50.928;7.172;2022-07-29T04:48:47;15.70;42.10
12849;DHT22;6493;50.928;7.172;2022-07-29T04:53:52;15.70;42.20
12849;DHT22;6493;50.928;7.172;2022-07-29T04:58:55;15.70;42.30
12849;DHT22;6493;50.928;7.172;2022-07-29T05:03:59;15.70;42.30
12849;DHT22;6493;50.928;7.172;2022-07-29T05:09:04;15.80;42.50
12849;DHT22;6493;50.928;7.172;2022-07-29T05:14:08;15.80;42.60
12849;DHT22;6493;50.928;7.172;2022-07-29T05:19:11;16.10;43.80
12849;DHT22;6493;50.928;7.172;2022-07-29T05:24:17;16.80;45.10
12849;DHT22;6493;50.928;7.172;2022-07-29T05:29:21;17.50;44.60
12849;DHT22;6493;50.928;7.172;2022-07-29T05:34:45;17.90;43.80
12849;DHT22;6493;50.928;7.172;2022-07-29T05:39:54;18.10;43.30
12849;DHT22;6493;50.928;7.172;2022-07-29T05:45:00;18.20;42.90
12849;DHT22;6493;50.928;7.172;2022-07-29T05:50:05;18.20;42.80
12849;DHT22;6493;50.928;7.172;2022-07-29T05:55:10;18.10;43.30
12849;DHT22;6493;50.928;7.172;2022-07-29T06:00:14;18.10;42.80
12849;DHT22;6493;50.928;7.172;2022-07-29T06:05:18;18.10;42.90
12849;DHT22;6493;50.928;7.172;2022-07-29T06:10:23;18.20;43.10
12849;DHT22;6493;50.928;7.172;2022-07-29T06:15:28;18.30;43.20
12849;DHT22;6493;50.928;7.172;2022-07-29T06:20:32;18.40;43.10
12849;DHT22;6493;50.928;7.172;2022-07-29T06:25:39;18.50;43.00
12849;DHT22;6493;50.928;7.172;2022-07-29T06:30:43;18.50;43.00
12849;DHT22;6493;50.928;7.172;2022-07-29T06:35:46;18.50;43.00
12849;DHT22;6493;50.928;7.172;2022-07-29T06:40:56;18.60;43.30
12849;DHT22;6493;50.928;7.172;2022-07-29T06:46:07;18.90;43.80
12849;DHT22;6493;50.928;7.172;2022-07-29T06:51:11;19.30;43.90
12849;DHT22;6493;50.928;7.172;2022-07-29T06:56:17;19.60;43.40
12849;DHT22;6493;50.928;7.172;2022-07-29T07:01:21;19.70;43.30
12849;DHT22;6493;50.928;7.172;2022-07-29T07:06:25;20.10;43.90
12849;DHT22;6493;50.928;7.172;2022-07-29T07:11:30;20.70;44.50
12849;DHT22;6493;50.928;7.172;2022-07-29T07:16:34;21.30;43.70
12849;DHT22;6493;50.928;7.172;2022-07-29T07:21:37;21.50;42.80
12849;DHT22;6493;50.928;7.172;2022-07-29T07:26:42;21.40;42.10
12849;DHT22;6493;50.928;7.172;2022-07-29T07:31:46;21.30;41.80
12849;DHT22;6493;50.928;7.172;2022-07-29T07:36:50;21.20;41.80
12849;DHT22;6493;50.928;7.172;2022-07-29T07:41:55;21.00;41.70
12849;DHT22;6493;50.928;7.172;2022-07-29T07:46:59;20.90;42.00
12849;DHT22;6493;50.928;7.172;2022-07-29T07:52:10;20.80;42.00
12849;DHT22;6493;50.928;7.172;2022-07-29T07:57:15;20.80;41.90
12849;DHT22;6493;50.928;7.172;2022-07-29T08:02:19;20.70;41.80
12849;DHT22;6493;50.928;7.172;2022-07-29T08:07:22;20.70;41.90
12849;DHT22;6493;50.928;7.172;2022-07-29T08:12:27;20.70;42.00
12849;DHT22;6493;50.928;7.172;2022-07-29T08:17:31;20.70;42.10
12849;DHT22;6493;50.928;7.172;2022-07-29T08:22:36;20.70;41.90
12849;DHT22;6493;50.928;7.172;2022-07-29T08:27:41;20.60;41.90
12849;DHT22;6493;50.928;7.172;2022-07-29T08:32:47;20.60;42.00
12849;DHT22;6493;50.928;7.172;2022-07-29T08:37:56;20.60;42.10
12849;DHT22;6493;50.928;7.172;2022-07-29T08:43:05;20.60;42.20
12849;DHT22;6493;50.928;7.172;2022-07-29T08:48:09;20.60;42.40
12849;DHT22;6493;50.928;7.172;2022-07-29T08:53:16;20.70;42.40
12849;DHT22;6493;50.928;7.172;2022-07-29T08:58:22;20.80;42.60
12849;DHT22;6493;50.928;7.172;2022-07-29T09:03:31;20.90;42.60
12849;DHT22;6493;50.928;7.172;2022-07-29T09:08:35;21.10;42.70
12849;DHT22;6493;50.928;7.172;2022-07-29T09:13:40;21.20;42.50
12849;DHT22;6493;50.928;7.172;2022-07-29T09:18:45;21.20;42.40
12849;DHT22;6493;50.928;7.172;2022-07-29T09:24:06;21.20;42.40
12849;DHT22;6493;50.928;7.172;2022-07-29T09:29:13;21.20;42.50
12849;DHT22;6493;50.928;7.172;2022-07-29T09:34:22;21.20;42.50
12849;DHT22;6493;50.928;7.172;2022-07-29T09:39:30;21.30;42.80
12849;DHT22;6493;50.928;7.172;2022-07-29T09:44:43;21.50;43.00
12849;DHT22;6493;50.928;7.172;2022-07-29T09:49:52;21.80;43.00
12849;DHT22;6493;50.928;7.172;2022-07-29T09:55:04;22.20;42.80
12849;DHT22;6493;50.928;7.172;2022-07-29T10:00:12;22.50;42.30
12849;DHT22;6493;50.928;7.172;2022-07-29T10:05:20;22.90;42.30
12849;DHT22;6493;50.928;7.172;2022-07-29T10:10:25;23.20;42.20
12849;DHT22;6493;50.928;7.172;2022-07-29T10:15:32;23.40;41.90
12849;DHT22;6493;50.928;7.172;2022-07-29T10:20:40;23.60;41.60
12849;DHT22;6493;50.928;7.172;2022-07-29T10:25:45;23.70;42.40
12849;DHT22;6493;50.928;7.172;2022-07-29T10:30:51;23.90;41.60
12849;DHT22;6493;50.928;7.172;2022-07-29T10:36:10;24.10;41.50
12849;DHT22;6493;50.928;7.172;2022-07-29T10:41:43;24.30;41.40
12849;DHT22;6493;50.928;7.172;2022-07-29T10:46:52;24.40;41.30
12849;DHT22;6493;50.928;7.172;2022-07-29T10:51:59;24.50;41.00
12849;DHT22;6493;50.928;7.172;2022-07-29T10:57:14;24.50;41.00
12849;DHT22;6493;50.928;7.172;2022-07-29T11:02:47;24.50;40.90
12849;DHT22;6493;50.928;7.172;2022-07-29T11:08:16;24.60;41.00
12849;DHT22;6493;50.928;7.172;2022-07-29T11:13:52;24.70;40.90
12849;DHT22;6493;50.928;7.172;2022-07-29T11:19:21;24.60;40.30
12849;DHT22;6493;50.928;7.172;2022-07-29T11:24:31;24.60;40.40
12849;DHT22;6493;50.928;7.172;2022-07-29T11:29:40;24.60;40.80
12849;DHT22;6493;50.928;7.172;2022-07-29T11:34:47;24.60;40.80
12849;DHT22;6493;50.928;7.172;2022-07-29T11:40:21;24.60;40.70
12849;DHT22;6493;50.928;7.172;2022-07-29T11:45:26;24.70;40.50
12849;DHT22;6493;50.928;7.172;2022-07-29T11:50:49;24.70;40.70
12849;DHT22;6493;50.928;7.172;2022-07-29T11:55:55;24.70;40.30
12849;DHT22;6493;50.928;7.172;2022-07-29T12:01:00;24.70;40.30
12849;DHT22;6493;50.928;7.172;2022-07-29T12:06:25;24.80;40.50
12849;DHT22;6493;50.928;7.172;2022-07-29T12:11:29;24.80;40.50
12849;DHT22;6493;50.928;7.172;2022-07-29T12:16:35;24.80;40.30
12849;DHT22;6493;50.928;7.172;2022-07-29T12:21:48;24.90;40.20
12849;DHT22;6493;50.928;7.172;2022-07-29T12:27:00;25.00;40.00
12849;DHT22;6493;50.928;7.172;2022-07-29T12:32:04;25.00;40.00
12849;DHT22;6493;50.928;7.172;2022-07-29T12:37:22;25.10;39.90
12849;DHT22;6493;50.928;7.172;2022-07-29T12:43:05;25.10;39.60
12849;DHT22;6493;50.928;7.172;2022-07-29T12:48:09;25.10;39.00
12849;DHT22;6493;50.928;7.172;2022-07-29T12:53:15;25.20;39.40
12849;DHT22;6493;50.928;7.172;2022-07-29T12:58:30;25.10;39.00
12849;DHT22;6493;50.928;7.172;2022-07-29T13:03:44;24.90;38.80
12849;DHT22;6493;50.928;7.172;2022-07-29T13:09:03;24.70;39.20
12849;DHT22;6493;50.928;7.172;2022-07-29T13:14:08;24.60;39.00
12849;DHT22;6493;50.928;7.172;2022-07-29T13:19:12;24.50;39.10
12849;DHT22;6493;50.928;7.172;2022-07-29T13:24:16;24.50;39.30
12849;DHT22;6493;50.928;7.172;2022-07-29T13:29:21;24.50;39.20
12849;DHT22;6493;50.928;7.172;2022-07-29T13:34:28;24.50;39.00
12849;DHT22;6493;50.928;7.172;2022-07-29T13:39:34;24.40;38.80
12849;DHT22;6493;50.928;7.172;2022-07-29T13:44:39;24.50;39.00
12849;DHT22;6493;50.928;7.172;2022-07-29T13:49:43;24.50;39.10
12849;DHT22;6493;50.928;7.172;2022-07-29T13:54:48;24.60;38.90
12849;DHT22;6493;50.928;7.172;2022-07-29T13:59:52;24.70;38.80
12849;DHT22;6493;50.928;7.172;2022-07-29T14:04:56;24.80;38.80
12849;DHT22;6493;50.928;7.172;2022-07-29T14:10:01;25.00;38.70
12849;DHT22;6493;50.928;7.172;2022-07-29T14:15:05;25.00;38.40
12849;DHT22;6493;50.928;7.172;2022-07-29T14:20:09;24.90;38.30
12849;DHT22;6493;50.928;7.172;2022-07-29T14:25:15;24.90;38.40
12849;DHT22;6493;50.928;7.172;2022-07-29T14:30:18;24.90;38.40
12849;DHT22;6493;50.928;7.172;2022-07-29T14:35:22;25.00;38.60
12849;DHT22;6493;50.928;7.172;2022-07-29T14:40:28;25.00;38.20
12849;DHT22;6493;50.928;7.172;2022-07-29T14:45:31;25.10;38.10
12849;DHT22;6493;50.928;7.172;2022-07-29T14:50:35;25.20;38.30
12849;DHT22;6493;50.928;7.172;2022-07-29T14:55:41;25.20;38.10
12849;DHT22;6493;50.928;7.172;2022-07-29T15:00:45;25.20;38.10
12849;DHT22;6493;50.928;7.172;2022-07-29T15:05:48;25.10;38.00
12849;DHT22;6493;50.928;7.172;2022-07-29T15:10:53;25.10;38.00
12849;DHT22;6493;50.928;7.172;2022-07-29T15:15:59;25.00;38.00
12849;DHT22;6493;50.928;7.172;2022-07-29T15:21:03;25.00;38.10
12849;DHT22;6493;50.928;7.172;2022-07-29T15:26:10;25.00;38.00
12849;DHT22;6493;50.928;7.172;2022-07-29T15:31:13;25.00;37.90
12849;DHT22;6493;50.928;7.172;2022-07-29T15:36:17;25.00;37.80
12849;DHT22;6493;50.928;7.172;2022-07-29T15:41:42;25.00;37.70
12849;DHT22;6493;50.928;7.172;2022-07-29T15:46:46;24.90;37.70
12849;DHT22;6493;50.928;7.172;2022-07-29T15:52:09;24.80;37.70
12849;DHT22;6493;50.928;7.172;2022-07-29T15:57:15;24.80;37.70
12849;DHT22;6493;50.928;7.172;2022-07-29T16:02:18;24.70;37.60
12849;DHT22;6493;50.928;7.172;2022-07-29T16:07:22;24.60;37.40
12849;DHT22;6493;50.928;7.172;2022-07-29T16:12:34;24.50;37.50
12849;DHT22;6493;50.928;7.172;2022-07-29T16:17:38;24.40;37.60
12849;DHT22;6493;50.928;7.172;2022-07-29T16:22:42;24.20;37.50
12849;DHT22;6493;50.928;7.172;2022-07-29T16:27:47;24.10;37.50
12849;DHT22;6493;50.928;7.172;2022-07-29T16:32:50;24.00;37.60
12849;DHT22;6493;50.928;7.172;2022-07-29T16:37:54;23.80;38.10
12849;DHT22;6493;50.928;7.172;2022-07-29T16:42:59;23.70;37.50
12849;DHT22;6493;50.928;7.172;2022-07-29T16:48:04;23.60;37.50
12849;DHT22;6493;50.928;7.172;2022-07-29T16:53:08;23.50;37.50
12849;DHT22;6493;50.928;7.172;2022-07-29T16:58:13;23.30;37.40
12849;DHT22;6493;50.928;7.172;2022-07-29T17:03:17;23.20;37.40
12849;DHT22;6493;50.928;7.172;2022-07-29T17:08:21;23.00;37.40
12849;DHT22;6493;50.928;7.172;2022-07-29T17:13:26;22.90;37.60
12849;DHT22;6493;50.928;7.172;2022-07-29T17:18:30;22.80;37.60
12849;DHT22;6493;50.928;7.172;2022-07-29T17:23:34;22.70;37.50
12849;DHT22;6493;50.928;7.172;2022-07-29T17:28:39;22.60;37.50
12849;DHT22;6493;50.928;7.172;2022-07-29T17:33:43;22.60;37.80
12849;DHT22;6493;50.928;7.172;2022-07-29T17:38:46;22.50;37.80
12849;DHT22;6493;50.928;7.172;2022-07-29T17:43:52;22.50;38.60
12849;DHT22;6493;50.928;7.172;2022-07-29T17:48:56;22.30;38.00
12849;DHT22;6493;50.928;7.172;2022-07-29T17:54:00;22.30;38.10
12849;DHT22;6493;50.928;7.172;2022-07-29T17:59:05;22.30;38.10
12849;DHT22;6493;50.928;7.172;2022-07-29T18:04:11;22.20;38.00
12849;DHT22;6493;50.928;7.172;2022-07-29T18:09:16;22.10;37.90
12849;DHT22;6493;50.928;7.172;2022-07-29T18:14:21;22.00;37.80
12849;DHT22;6493;50.928;7.172;2022-07-29T18:19:25;21.90;37.80
12849;DHT22;6493;50.928;7.172;2022-07-29T18:24:29;21.80;37.90
12849;DHT22;6493;50.928;7.172;2022-07-29T18:29:34;21.80;38.00
12849;DHT22;6493;50.928;7.172;2022-07-29T18:34:38;21.70;38.10
12849;DHT22;6493;50.928;7.172;2022-07-29T18:39:42;21.60;38.10
12849;DHT22;6493;50.928;7.172;2022-07-29T18:44:47;21.50;38.00
12849;DHT22;6493;50.928;7.172;2022-07-29T18:49:51;21.50;38.10
12849;DHT22;6493;50.928;7.172;2022-07-29T18:54:54;21.30;38.10
12849;DHT22;6493;50.928;7.172;2022-07-29T19:00:00;21.30;38.20
12849;DHT22;6493;50.928;7.172;2022-07-29T19:05:05;21.20;38.30
12849;DHT22;6493;50.928;7.172;2022-07-29T19:10:09;21.10;38.30
12849;DHT22;6493;50.928;7.172;2022-07-29T19:15:14;21.10;38.30
12849;DHT22;6493;50.928;7.172;2022-07-29T19:20:21;20.90;38.20
12849;DHT22;6493;50.928;7.172;2022-07-29T19:25:25;20.80;38.30
12849;DHT22;6493;50.928;7.172;2022-07-29T19:30:32;20.70;38.30
12849;DHT22;6493;50.928;7.172;2022-07-29T19:35:36;20.60;38.30
12849;DHT22;6493;50.928;7.172;2022-07-29T19:40:39;20.50;38.40
12849;DHT22;6493;50.928;7.172;2022-07-29T19:45:44;20.40;38.40
12849;DHT22;6493;50.928;7.172;2022-07-29T19:50:49;20.30;38.60
12849;DHT22;6493;50.928;7.172;2022-07-29T19:55:52;20.20;38.60
12849;DHT22;6493;50.928;7.172;2022-07-29T20:00:57;20.20;38.80
12849;DHT22;6493;50.928;7.172;2022-07-29T20:06:01;20.10;38.90
12849;DHT22;6493;50.928;7.172;2022-07-29T20:11:05;20.00;38.90
12849;DHT22;6493;50.928;7.172;2022-07-29T20:16:10;19.90;39.00
12849;DHT22;6493;50.928;7.172;2022-07-29T20:21:14;19.80;39.10
12849;DHT22;6493;50.928;7.172;2022-07-29T20:26:17;19.70;39.10
12849;DHT22;6493;50.928;7.172;2022-07-29T20:31:22;19.70;39.30
12849;DHT22;6493;50.928;7.172;2022-07-29T20:36:27;19.60;39.30
12849;DHT22;6493;50.928;7.172;2022-07-29T20:41:31;19.60;39.40
12849;DHT22;6493;50.928;7.172;2022-07-29T20:46:36;19.50;39.50
12849;DHT22;6493;50.928;7.172;2022-07-29T20:51:41;19.50;39.60
12849;DHT22;6493;50.928;7.172;2022-07-29T20:56:45;19.40;39.60
12849;DHT22;6493;50.928;7.172;2022-07-29T21:01:50;19.40;39.80
12849;DHT22;6493;50.928;7.172;2022-07-29T21:06:54;19.30;39.90
12849;DHT22;6493;50.928;7.172;2022-07-29T21:11:58;19.30;40.00
12849;DHT22;6493;50.928;7.172;2022-07-29T21:17:04;19.30;40.00
12849;DHT22;6493;50.928;7.172;2022-07-29T21:22:08;19.30;40.00
12849;DHT22;6493;50.928;7.172;2022-07-29T21:27:12;19.30;40.10
12849;DHT22;6493;50.928;7.172;2022-07-29T21:32:35;19.20;40.10
12849;DHT22;6493;50.928;7.172;2022-07-29T21:37:38;19.20;40.20
12849;DHT22;6493;50.928;7.172;2022-07-29T21:42:42;19.10;40.20
12849;DHT22;6493;50.928;7.172;2022-07-29T21:47:48;19.10;40.30
12849;DHT22;6493;50.928;7.172;2022-07-29T21:52:52;19.10;40.40
12849;DHT22;6493;50.928;7.172;2022-07-29T21:57:56;19.00;40.40
12849;DHT22;6493;50.928;7.172;2022-07-29T22:03:03;19.10;40.50
12849;DHT22;6493;50.928;7.172;2022-07-29T22:08:06;19.00;40.60
12849;DHT22;6493;50.928;7.172;2022-07-29T22:13:10;19.00;40.60
12849;DHT22;6493;50.928;7.172;2022-07-29T22:18:15;19.00;40.70
12849;DHT22;6493;50.928;7.172;2022-07-29T22:23:22;19.00;40.80
12849;DHT22;6493;50.928;7.172;2022-07-29T22:28:26;19.00;40.80
12849;DHT22;6493;50.928;7.172;2022-07-29T22:33:31;18.90;40.90
12849;DHT22;6493;50.928;7.172;2022-07-29T22:38:34;18.90;41.10
12849;DHT22;6493;50.928;7.172;2022-07-29T22:43:38;18.90;41.10
12849;DHT22;6493;50.928;7.172;2022-07-29T22:48:43;18.80;41.20
12849;DHT22;6493;50.928;7.172;2022-07-29T22:53:47;18.80;41.30
12849;DHT22;6493;50.928;7.172;2022-07-29T22:58:51;18.70;41.30
12849;DHT22;6493;50.928;7.172;2022-07-29T23:03:58;18.70;41.40
12849;DHT22;6493;50.928;7.172;2022-07-29T23:09:01;18.60;41.40
12849;DHT22;6493;50.928;7.172;2022-07-29T23:14:05;18.60;41.40
12849;DHT22;6493;50.928;7.172;2022-07-29T23:19:12;18.50;41.40
12849;DHT22;6493;50.928;7.172;2022-07-29T23:24:16;18.40;41.50
12849;DHT22;6493;50.928;7.172;2022-07-29T23:29:19;18.40;41.50
12849;DHT22;6493;50.928;7.172;2022-07-29T23:34:24;18.30;41.60
12849;DHT22;6493;50.928;7.172;2022-07-29T23:39:28;18.20;41.60
12849;DHT22;6493;50.928;7.172;2022-07-29T23:44:31;18.10;41.60
12849;DHT22;6493;50.928;7.172;2022-07-29T23:49:37;18.00;41.60
12849;DHT22;6493;50.928;7.172;2022-07-29T23:54:40;17.90;41.70
12849;DHT22;6493;50.928;7.172;2022-07-29T23:59:44;17.80;41.80
